Time;durP1;ratioP1;P1;durP2;ratioP2;P2;SDS_P1;SDS_P2;PMS_P1;PMS_P2;Temp;Humidity;BMP_temperature;BMP_pressure;BME280_temperature;BME280_humidity;BME280_pressure;Samples;Min_cycle;Max_cycle;Signal;HPM_P1;HPM_P2
2023/10/24 00:00:16;;;;;;;6.63;2.53;;;9.30;98.50;;;;;;4991162;28;20026;-70
2023/10/24 00:02:42;;;;;;;4.05;2.08;;;9.30;98.50;;;;;;4986544;28;20177;-72
2023/10/24 00:05:08;;;;;;;4.15;2.22;;;9.20;98.60;;;;;;4987890;28;20030;-73
2023/10/24 00:07:34;;;;;;;5.45;2.63;;;9.30;98.60;;;;;;4988437;28;20070;-71
2023/10/24 00:10:01;;;;;;;3.83;2.17;;;9.30;98.50;;;;;;4990217;28;20034;-71
2023/10/24 00:12:26;;;;;;;6.20;2.60;;;9.30;98.60;;;;;;4974996;28;20106;-71
2023/10/24 00:14:55;;;;;;;6.05;2.88;;;9.20;98.60;;;;;;4989763;28;20143;-72
2023/10/24 00:17:20;;;;;;;4.57;2.58;;;9.20;98.60;;;;;;4984059;28;20038;-72
2023/10/24 00:19:46;;;;;;;4.50;2.00;;;9.20;98.60;;;;;;4984087;28;20027;-70
2023/10/24 00:22:11;;;;;;;5.13;2.63;;;9.30;98.60;;;;;;4983693;28;22152;-70
2023/10/24 00:24:37;;;;;;;4.25;2.10;;;9.20;98.70;;;;;;4985298;28;20026;-71
2023/10/24 00:27:02;;;;;;;4.55;2.30;;;9.30;98.70;;;;;;4986931;28;20128;-71
2023/10/24 00:29:28;;;;;;;4.40;2.40;;;9.30;98.60;;;;;;4990588;28;20030;-71
2023/10/24 00:31:53;;;;;;;5.25;2.47;;;9.20;98.70;;;;;;4988696;28;20030;-72
2023/10/24 00:34:19;;;;;;;5.63;2.80;;;9.20;98.70;;;;;;4985861;28;20121;-72
2023/10/24 00:36:45;;;;;;;3.45;2.05;;;9.20;98.70;;;;;;4985385;28;20034;-71
2023/10/24 00:39:11;;;;;;;4.57;2.17;;;9.20;98.70;;;;;;4982233;28;20069;-71
2023/10/24 00:41:36;;;;;;;5.25;2.33;;;9.20;98.60;;;;;;4981912;28;20027;-72
2023/10/24 00:44:02;;;;;;;4.72;2.67;;;9.20;98.70;;;;;;4983040;28;20426;-71
2023/10/24 00:46:28;;;;;;;4.65;2.65;;;9.20;98.70;;;;;;4972220;28;20117;-71
2023/10/24 00:48:54;;;;;;;3.70;2.47;;;9.30;98.70;;;;;;4989454;28;20035;-70
2023/10/24 00:51:20;;;;;;;4.82;2.13;;;9.20;98.70;;;;;;4992180;28;20034;-70
2023/10/24 00:53:47;;;;;;;4.28;2.38;;;9.20;98.80;;;;;;4991455;28;20045;-70
2023/10/24 00:56:14;;;;;;;4.22;2.58;;;9.30;98.80;;;;;;4991220;28;20026;-71
2023/10/24 00:58:41;;;;;;;4.25;2.17;;;9.30;98.80;;;;;;4986551;28;20034;-70
2023/10/24 01:01:12;;;;;;;3.92;2.30;;;9.20;98.80;;;;;;4987230;28;20037;-70
2023/10/24 01:03:38;;;;;;;4.88;2.22;;;9.30;98.80;;;;;;4990405;28;20038;-70
2023/10/24 01:06:05;;;;;;;4.85;2.53;;;9.20;98.80;;;;;;4994589;28;20065;-70
2023/10/24 01:08:31;;;;;;;4.97;2.55;;;9.20;98.80;;;;;;4984409;28;20046;-71
2023/10/24 01:10:57;;;;;;;5.65;2.72;;;9.20;98.90;;;;;;4991683;28;20446;-71
2023/10/24 01:13:22;;;;;;;5.13;2.50;;;9.20;98.80;;;;;;4978929;28;20038;-71
2023/10/24 01:15:48;;;;;;;4.00;2.55;;;9.20;98.90;;;;;;4991429;28;20030;-71
2023/10/24 01:18:13;;;;;;;5.82;2.60;;;9.20;98.90;;;;;;4990493;28;20038;-71
2023/10/24 01:20:39;;;;;;;5.63;2.90;;;9.20;98.90;;;;;;4991972;28;20107;-71
2023/10/24 01:23:08;;;;;;;4.97;2.63;;;9.20;99.00;;;;;;4992750;28;20084;-71
2023/10/24 01:25:39;;;;;;;4.88;2.85;;;9.20;98.90;;;;;;4986320;28;20055;-71
2023/10/24 01:28:05;;;;;;;4.68;2.85;;;9.30;99.00;;;;;;4988058;28;20037;-71
2023/10/24 01:30:31;;;;;;;6.28;2.88;;;9.20;98.90;;;;;;4992945;28;20046;-71
2023/10/24 01:32:56;;;;;;;5.00;2.65;;;9.30;98.90;;;;;;4989875;28;20383;-71
2023/10/24 01:35:22;;;;;;;5.25;2.80;;;9.30;98.90;;;;;;4991264;28;20041;-70
2023/10/24 01:37:47;;;;;;;5.13;2.90;;;9.30;98.90;;;;;;4980843;28;20043;-70
2023/10/24 01:40:13;;;;;;;5.07;2.63;;;9.30;98.90;;;;;;4978633;28;20529;-71
2023/10/24 01:42:38;;;;;;;4.88;2.47;;;9.30;98.80;;;;;;4979707;28;20134;-71
2023/10/24 01:45:05;;;;;;;3.70;2.08;;;9.30;98.80;;;;;;4989410;28;20125;-72
2023/10/24 01:47:30;;;;;;;5.18;2.67;;;9.30;98.80;;;;;;4994033;28;20038;-70
2023/10/24 01:49:56;;;;;;;4.72;2.13;;;9.30;98.80;;;;;;4992082;28;20360;-71
2023/10/24 01:52:22;;;;;;;7.30;2.75;;;9.30;98.90;;;;;;4988113;28;20034;-71
2023/10/24 01:54:47;;;;;;;4.50;2.22;;;9.40;98.90;;;;;;4984189;28;20046;-71
2023/10/24 01:57:14;;;;;;;5.18;2.63;;;9.40;98.90;;;;;;4978615;28;20119;-71
2023/10/24 01:59:40;;;;;;;6.35;2.75;;;9.30;98.90;;;;;;4990825;28;20041;-71
2023/10/24 02:02:05;;;;;;;5.68;2.63;;;9.40;98.90;;;;;;4991684;28;20034;-71
2023/10/24 02:04:31;;;;;;;5.40;2.90;;;9.40;98.90;;;;;;4987994;28;20031;-71
2023/10/24 02:06:56;;;;;;;5.00;2.58;;;9.40;98.90;;;;;;4977669;28;20073;-72
2023/10/24 02:09:22;;;;;;;4.65;2.53;;;9.40;98.90;;;;;;4985543;28;20105;-70
2023/10/24 02:11:48;;;;;;;6.38;2.60;;;9.40;99.00;;;;;;4983166;28;20552;-72
2023/10/24 02:14:13;;;;;;;4.60;2.67;;;9.30;99.00;;;;;;4985229;28;20039;-71
2023/10/24 02:16:39;;;;;;;5.03;2.67;;;9.30;99.00;;;;;;4991856;28;20045;-73
2023/10/24 02:19:04;;;;;;;5.05;2.47;;;9.30;99.10;;;;;;4992384;28;20391;-71
2023/10/24 02:21:30;;;;;;;4.93;2.58;;;9.30;99.20;;;;;;4983917;28;20110;-70
2023/10/24 02:23:57;;;;;;;4.53;2.30;;;9.30;99.20;;;;;;4982123;28;20082;-73
2023/10/24 02:26:22;;;;;;;5.30;2.72;;;9.40;99.30;;;;;;4990710;28;20060;-72
2023/10/24 02:28:48;;;;;;;5.63;2.95;;;9.40;99.30;;;;;;4988340;28;20030;-70
2023/10/24 02:31:14;;;;;;;3.95;2.20;;;9.40;99.40;;;;;;4989054;28;20070;-71
2023/10/24 02:33:40;;;;;;;5.05;2.28;;;9.40;99.40;;;;;;4988473;28;20298;-71
2023/10/24 02:36:09;;;;;;;5.05;2.90;;;9.30;99.40;;;;;;4990171;28;20038;-71
2023/10/24 02:38:34;;;;;;;3.75;2.20;;;9.40;99.50;;;;;;4984784;28;20432;-71
2023/10/24 02:41:00;;;;;;;4.47;2.20;;;9.30;99.40;;;;;;4989871;28;20109;-71
2023/10/24 02:43:26;;;;;;;4.43;2.33;;;9.30;99.50;;;;;;4980951;28;20065;-71
2023/10/24 02:45:53;;;;;;;4.65;2.60;;;9.30;99.50;;;;;;4994029;28;20050;-71
2023/10/24 02:48:19;;;;;;;5.88;2.72;;;9.30;99.60;;;;;;4995891;28;20030;-72
2023/10/24 02:50:44;;;;;;;6.20;2.72;;;9.20;99.60;;;;;;4989234;28;20141;-71
2023/10/24 02:53:10;;;;;;;4.05;2.28;;;9.20;99.70;;;;;;4984949;28;20476;-71
2023/10/24 02:55:35;;;;;;;5.43;3.13;;;9.20;99.80;;;;;;4988591;28;20080;-72
2023/10/24 02:58:01;;;;;;;3.95;2.35;;;9.20;99.80;;;;;;4987180;28;20030;-73
2023/10/24 03:00:26;;;;;;;6.20;2.50;;;9.20;99.90;;;;;;4979097;28;20447;-71
2023/10/24 03:02:52;;;;;;;3.72;2.08;;;9.20;99.90;;;;;;4982107;28;20043;-71
2023/10/24 03:05:18;;;;;;;4.72;2.45;;;9.20;99.90;;;;;;4989142;28;20030;-73
2023/10/24 03:07:43;;;;;;;5.40;2.80;;;9.20;99.90;;;;;;4989117;28;20426;-71
2023/10/24 03:10:09;;;;;;;6.60;2.33;;;9.20;99.90;;;;;;4984206;28;20046;-72
2023/10/24 03:12:35;;;;;;;4.53;2.58;;;9.20;99.90;;;;;;4975958;28;20027;-71
2023/10/24 03:15:00;;;;;;;4.43;2.50;;;9.20;99.90;;;;;;4990056;28;20034;-71
2023/10/24 03:17:26;;;;;;;6.35;3.17;;;9.20;99.90;;;;;;4986077;28;20122;-71
2023/10/24 03:19:52;;;;;;;5.38;2.88;;;9.20;99.90;;;;;;4989541;28;20398;-71
2023/10/24 03:22:18;;;;;;;5.10;2.38;;;9.30;99.90;;;;;;4989855;28;20026;-72
2023/10/24 03:24:43;;;;;;;5.68;2.90;;;9.20;99.90;;;;;;4989353;28;20225;-71
2023/10/24 03:27:12;;;;;;;4.70;2.25;;;9.20;99.90;;;;;;4973695;28;20041;-72
2023/10/24 03:29:40;;;;;;;4.85;2.58;;;9.20;99.90;;;;;;4988347;28;20026;-72
2023/10/24 03:32:06;;;;;;;5.18;2.80;;;9.20;99.90;;;;;;4990001;28;20046;-72
2023/10/24 03:34:33;;;;;;;4.75;2.67;;;9.20;99.90;;;;;;4982825;28;20023;-71
2023/10/24 03:36:59;;;;;;;5.25;2.53;;;9.20;99.90;;;;;;4979520;28;20041;-71
2023/10/24 03:39:25;;;;;;;4.95;2.70;;;9.30;99.90;;;;;;4979327;28;20023;-72
2023/10/24 03:41:50;;;;;;;4.28;2.20;;;9.30;99.90;;;;;;4980653;28;20038;-72
2023/10/24 03:44:16;;;;;;;4.50;2.42;;;9.30;99.90;;;;;;4979162;28;20400;-72
2023/10/24 03:46:41;;;;;;;4.95;2.67;;;9.40;99.90;;;;;;4990841;28;20026;-71
2023/10/24 03:49:07;;;;;;;5.68;2.88;;;9.40;99.90;;;;;;4989874;28;20026;-72
2023/10/24 03:51:32;;;;;;;5.28;2.38;;;9.40;99.90;;;;;;4978390;28;20042;-71
2023/10/24 03:53:58;;;;;;;6.03;3.17;;;9.40;99.90;;;;;;4988694;28;20672;-73
2023/10/24 03:56:23;;;;;;;6.18;3.03;;;9.50;99.90;;;;;;4981504;28;20023;-72
2023/10/24 03:58:49;;;;;;;5.25;2.72;;;9.50;99.90;;;;;;4978704;28;20137;-73
2023/10/24 04:01:14;;;;;;;6.63;3.53;;;9.50;99.90;;;;;;4988736;28;20038;-72
2023/10/24 04:03:39;;;;;;;4.18;2.60;;;9.50;99.90;;;;;;4985093;28;20035;-72
2023/10/24 04:06:10;;;;;;;5.78;2.78;;;9.60;99.90;;;;;;4989363;28;20038;-72
2023/10/24 04:08:36;;;;;;;6.32;3.50;;;9.60;99.90;;;;;;4985484;28;20031;-72
2023/10/24 04:11:03;;;;;;;5.82;3.22;;;9.60;99.90;;;;;;4985282;28;20038;-72
2023/10/24 04:13:28;;;;;;;5.25;3.15;;;9.60;99.90;;;;;;4983051;28;20344;-72
2023/10/24 04:16:00;;;;;;;4.50;2.65;;;9.60;99.90;;;;;;4988737;28;20049;-72
2023/10/24 04:18:27;;;;;;;6.47;3.20;;;9.60;99.90;;;;;;4981270;28;20037;-71
2023/10/24 04:20:52;;;;;;;5.15;2.65;;;9.70;99.90;;;;;;4997676;28;20035;-71
2023/10/24 04:23:18;;;;;;;5.30;2.90;;;9.70;99.90;;;;;;4988570;28;20133;-72
2023/10/24 04:25:43;;;;;;;6.30;2.90;;;9.70;99.90;;;;;;4989397;28;20120;-75
2023/10/24 04:28:09;;;;;;;7.57;3.45;;;9.70;99.90;;;;;;4982173;28;20050;-69
2023/10/24 04:30:38;;;;;;;5.70;3.28;;;9.70;99.90;;;;;;4989940;28;20491;-67
2023/10/24 04:33:04;;;;;;;6.22;3.33;;;9.70;99.90;;;;;;4990660;28;20038;-67
2023/10/24 04:35:29;;;;;;;6.55;3.13;;;9.70;99.90;;;;;;4986552;28;20054;-67
2023/10/24 04:37:54;;;;;;;6.82;3.17;;;9.70;99.90;;;;;;4978218;28;20027;-68
2023/10/24 04:40:20;;;;;;;6.32;3.22;;;9.70;99.90;;;;;;5007177;28;20419;-68
2023/10/24 04:42:45;;;;;;;6.80;3.00;;;9.70;99.90;;;;;;4987178;28;20483;-69
2023/10/24 04:45:11;;;;;;;5.93;2.72;;;9.80;99.90;;;;;;4977322;28;20440;-67
2023/10/24 04:47:36;;;;;;;5.97;3.00;;;9.80;99.90;;;;;;4985299;28;20049;-69
2023/10/24 04:50:06;;;;;;;7.47;3.45;;;9.80;99.90;;;;;;4994258;28;20038;-69
2023/10/24 04:52:31;;;;;;;5.75;2.95;;;9.80;99.90;;;;;;4988911;28;20026;-67
2023/10/24 04:54:57;;;;;;;5.13;2.72;;;9.80;99.90;;;;;;4986481;28;20376;-70
2023/10/24 04:57:22;;;;;;;5.85;3.05;;;9.80;99.90;;;;;;4989697;28;20439;-67
2023/10/24 04:59:48;;;;;;;5.35;2.88;;;9.80;99.90;;;;;;4984980;28;20043;-68
2023/10/24 05:02:13;;;;;;;6.22;3.10;;;9.80;99.90;;;;;;4991968;28;20034;-68
2023/10/24 05:04:39;;;;;;;5.55;2.95;;;9.80;99.90;;;;;;4989411;28;20070;-68
2023/10/24 05:07:04;;;;;;;5.97;3.13;;;9.80;99.90;;;;;;4993795;28;20056;-68
2023/10/24 05:09:30;;;;;;;6.25;2.80;;;9.80;99.90;;;;;;4991742;28;20042;-67
2023/10/24 05:11:55;;;;;;;5.75;3.15;;;9.90;99.90;;;;;;4989601;28;20044;-68
2023/10/24 05:14:21;;;;;;;6.60;2.83;;;9.80;99.90;;;;;;4977627;28;20134;-70
2023/10/24 05:16:46;;;;;;;6.35;3.30;;;9.80;99.90;;;;;;4979153;28;20045;-68
2023/10/24 05:19:12;;;;;;;5.28;2.85;;;9.90;99.90;;;;;;4994226;28;20066;-69
2023/10/24 05:21:37;;;;;;;5.28;2.85;;;9.90;99.90;;;;;;4993822;28;20539;-67
2023/10/24 05:24:03;;;;;;;5.18;3.10;;;9.90;99.90;;;;;;4991512;28;20045;-67
2023/10/24 05:26:28;;;;;;;5.40;2.85;;;9.90;99.90;;;;;;4989470;28;20145;-71
2023/10/24 05:28:54;;;;;;;5.93;3.35;;;9.90;99.90;;;;;;4991590;28;20041;-67
2023/10/24 05:31:21;;;;;;;5.85;3.00;;;9.90;99.90;;;;;;4991830;28;20030;-68
2023/10/24 05:33:49;;;;;;;6.28;3.13;;;9.90;99.90;;;;;;4989607;28;20033;-68
2023/10/24 05:36:17;;;;;;;7.88;4.15;;;9.90;99.90;;;;;;4988891;28;20132;-68
2023/10/24 05:38:43;;;;;;;9.13;3.65;;;9.90;99.90;;;;;;4984349;28;20023;-67
2023/10/24 05:41:08;;;;;;;6.00;3.45;;;9.90;99.90;;;;;;4992127;28;20038;-68
2023/10/24 05:43:35;;;;;;;6.97;3.55;;;9.90;99.90;;;;;;4978043;28;20042;-68
2023/10/24 05:46:01;;;;;;;7.32;3.65;;;9.90;99.90;;;;;;4981114;28;20034;-68
2023/10/24 05:48:26;;;;;;;5.72;3.38;;;9.90;99.90;;;;;;4992992;28;20379;-68
2023/10/24 05:50:52;;;;;;;7.40;3.85;;;10.00;99.90;;;;;;4981902;28;20038;-68
2023/10/24 05:53:17;;;;;;;4.65;3.00;;;9.90;99.90;;;;;;4987298;28;20022;-68
2023/10/24 05:55:43;;;;;;;6.72;3.72;;;10.00;99.90;;;;;;4987549;28;20046;-69
2023/10/24 05:58:08;;;;;;;5.40;2.83;;;10.00;99.90;;;;;;4978777;28;20074;-68
2023/10/24 06:00:34;;;;;;;6.95;4.10;;;10.00;99.90;;;;;;5008410;28;20030;-67
2023/10/24 06:02:59;;;;;;;6.22;3.67;;;10.00;99.90;;;;;;4993159;28;20030;-68
2023/10/24 06:05:25;;;;;;;6.65;3.88;;;10.00;99.90;;;;;;4983810;28;20109;-67
2023/10/24 06:07:51;;;;;;;7.97;4.28;;;10.00;99.90;;;;;;4988830;28;20062;-68
2023/10/24 06:10:17;;;;;;;8.75;4.20;;;10.00;99.90;;;;;;4979845;28;20035;-69
2023/10/24 06:12:42;;;;;;;6.78;3.53;;;10.00;99.90;;;;;;4985924;28;20022;-68
2023/10/24 06:15:08;;;;;;;6.47;3.75;;;10.00;99.90;;;;;;4991304;28;20042;-68
2023/10/24 06:17:34;;;;;;;6.35;3.33;;;10.00;99.90;;;;;;4988027;28;20042;-69
2023/10/24 06:19:59;;;;;;;6.63;3.45;;;10.00;99.90;;;;;;4988037;28;20040;-68
2023/10/24 06:22:28;;;;;;;6.22;3.97;;;10.00;99.90;;;;;;4981140;28;20403;-68
2023/10/24 06:24:55;;;;;;;7.30;4.25;;;10.10;99.90;;;;;;4988921;28;20051;-67
2023/10/24 06:27:20;;;;;;;7.57;3.95;;;10.10;99.90;;;;;;4985554;28;20026;-70
2023/10/24 06:29:46;;;;;;;6.70;3.80;;;10.10;99.90;;;;;;4976508;28;20031;-68
2023/10/24 06:32:11;;;;;;;7.97;4.45;;;10.10;99.90;;;;;;4982393;28;20100;-67
2023/10/24 06:34:37;;;;;;;6.20;4.30;;;10.00;99.90;;;;;;4987710;28;20046;-67
2023/10/24 06:37:03;;;;;;;7.75;4.43;;;10.10;99.90;;;;;;4991198;28;20026;-67
2023/10/24 06:39:29;;;;;;;6.88;3.97;;;10.10;99.90;;;;;;4984966;28;20030;-68
2023/10/24 06:41:55;;;;;;;8.15;3.65;;;10.10;99.90;;;;;;4983777;28;20084;-68
2023/10/24 06:44:21;;;;;;;7.70;3.75;;;10.10;99.90;;;;;;4982966;28;20038;-67
2023/10/24 06:46:46;;;;;;;12.45;4.88;;;10.10;99.90;;;;;;4981293;28;20387;-68
2023/10/24 06:49:12;;;;;;;6.38;3.42;;;10.10;99.90;;;;;;4987607;28;20069;-67
2023/10/24 06:51:37;;;;;;;6.90;3.67;;;10.10;99.90;;;;;;4989327;28;20065;-67
2023/10/24 06:54:03;;;;;;;9.02;4.75;;;10.10;99.90;;;;;;4981038;28;20049;-68
2023/10/24 06:56:28;;;;;;;7.68;4.60;;;10.10;99.90;;;;;;4982548;28;20034;-71
2023/10/24 06:58:54;;;;;;;6.68;3.90;;;10.10;99.90;;;;;;4983968;28;20110;-67
2023/10/24 07:01:19;;;;;;;6.57;4.30;;;10.10;99.90;;;;;;4983723;28;20165;-68
2023/10/24 07:03:45;;;;;;;7.22;4.00;;;10.20;99.90;;;;;;4989614;28;20038;-67
2023/10/24 07:06:10;;;;;;;8.52;3.90;;;10.20;99.90;;;;;;4992964;28;20030;-68
2023/10/24 07:08:36;;;;;;;6.72;3.80;;;10.30;99.90;;;;;;4985019;28;20137;-69
2023/10/24 07:11:02;;;;;;;6.72;4.22;;;10.20;99.90;;;;;;4975242;28;20518;-67
2023/10/24 07:13:29;;;;;;;7.40;3.67;;;10.30;99.90;;;;;;4984230;28;20482;-69
2023/10/24 07:15:54;;;;;;;7.57;4.13;;;10.30;99.90;;;;;;4975836;28;20023;-68
2023/10/24 07:18:20;;;;;;;7.55;4.10;;;10.30;99.90;;;;;;4986649;28;20415;-68
2023/10/24 07:20:45;;;;;;;6.68;3.80;;;10.30;99.90;;;;;;4988844;28;20387;-67
2023/10/24 07:23:11;;;;;;;8.15;3.58;;;10.30;99.90;;;;;;4986946;28;20034;-67
2023/10/24 07:25:36;;;;;;;7.90;4.20;;;10.40;99.90;;;;;;5006405;28;20513;-67
2023/10/24 07:28:03;;;;;;;7.90;4.15;;;10.40;99.90;;;;;;4979617;28;20110;-66
2023/10/24 07:30:29;;;;;;;6.15;3.45;;;10.30;99.90;;;;;;4989663;28;20042;-67
2023/10/24 07:32:55;;;;;;;6.53;3.55;;;10.40;99.90;;;;;;4976288;28;20128;-67
2023/10/24 07:35:22;;;;;;;5.93;3.85;;;10.40;99.90;;;;;;4984894;28;20034;-67
2023/10/24 07:37:47;;;;;;;7.63;3.92;;;10.40;99.90;;;;;;4976712;28;20105;-66
2023/10/24 07:40:13;;;;;;;5.32;2.90;;;10.40;99.90;;;;;;4983276;28;20061;-68
2023/10/24 07:42:39;;;;;;;8.32;4.03;;;10.30;99.90;;;;;;4984181;28;20038;-67
2023/10/24 07:45:05;;;;;;;6.43;3.58;;;10.40;99.90;;;;;;4984689;28;20030;-70
2023/10/24 07:47:31;;;;;;;8.32;4.20;;;10.40;99.90;;;;;;4982901;28;20036;-67
2023/10/24 07:49:56;;;;;;;6.53;3.22;;;10.40;99.90;;;;;;4978377;28;20048;-66
2023/10/24 07:52:21;;;;;;;7.03;3.88;;;10.50;99.90;;;;;;4977060;28;20412;-66
2023/10/24 07:54:47;;;;;;;6.72;3.65;;;10.50;99.90;;;;;;4981631;28;20050;-66
2023/10/24 07:57:12;;;;;;;5.88;3.75;;;10.50;99.90;;;;;;4977109;28;20030;-66
2023/10/24 07:59:38;;;;;;;6.10;3.83;;;10.50;99.90;;;;;;4980127;28;20027;-66
2023/10/24 08:02:04;;;;;;;7.07;3.92;;;10.50;99.90;;;;;;4983138;28;20031;-66
2023/10/24 08:04:29;;;;;;;7.18;3.22;;;10.50;99.90;;;;;;4977520;28;20082;-68
2023/10/24 08:06:55;;;;;;;6.45;3.33;;;10.50;99.90;;;;;;4976989;28;20039;-67
2023/10/24 08:09:21;;;;;;;8.70;3.92;;;10.50;99.90;;;;;;4978538;28;20031;-68
2023/10/24 08:11:47;;;;;;;7.32;3.60;;;10.60;99.90;;;;;;4973357;28;20053;-69
2023/10/24 08:14:13;;;;;;;6.53;3.50;;;10.60;99.90;;;;;;4978722;28;20035;-68
2023/10/24 08:16:39;;;;;;;6.88;3.53;;;10.60;99.90;;;;;;4981670;28;20034;-69
2023/10/24 08:19:04;;;;;;;6.25;3.83;;;10.60;99.90;;;;;;4983122;28;20463;-68
2023/10/24 08:21:30;;;;;;;6.55;3.92;;;10.70;99.90;;;;;;4977277;28;20035;-67
2023/10/24 08:23:56;;;;;;;5.80;3.47;;;10.70;99.90;;;;;;4980317;28;20030;-67
2023/10/24 08:26:22;;;;;;;6.40;3.53;;;10.80;99.90;;;;;;4984298;28;20047;-68
2023/10/24 08:28:47;;;;;;;9.55;3.30;;;10.80;99.90;;;;;;4977844;28;20038;-67
2023/10/24 08:31:13;;;;;;;5.97;3.30;;;10.90;99.90;;;;;;4979681;28;20440;-67
2023/10/24 08:33:39;;;;;;;6.25;3.47;;;10.90;99.90;;;;;;4978267;28;20045;-68
2023/10/24 08:36:04;;;;;;;7.07;4.00;;;10.90;99.90;;;;;;4983905;28;20022;-67
2023/10/24 08:38:30;;;;;;;7.22;3.95;;;11.00;99.90;;;;;;4979216;28;20065;-67
2023/10/24 08:40:55;;;;;;;6.85;3.80;;;11.00;99.90;;;;;;4978987;28;20081;-68
2023/10/24 08:43:22;;;;;;;6.53;3.65;;;11.00;99.90;;;;;;4979903;28;20038;-68
2023/10/24 08:45:51;;;;;;;5.25;3.28;;;11.10;99.90;;;;;;4979868;28;20041;-66
2023/10/24 08:48:17;;;;;;;6.50;3.80;;;11.10;99.90;;;;;;4977934;28;20505;-68
2023/10/24 08:50:43;;;;;;;5.82;3.47;;;11.20;99.90;;;;;;4979334;28;20039;-66
2023/10/24 08:53:11;;;;;;;8.60;4.50;;;11.20;99.90;;;;;;4979583;28;20034;-66
2023/10/24 08:55:38;;;;;;;8.25;3.92;;;11.20;99.90;;;;;;4978857;28;20487;-67
2023/10/24 08:58:04;;;;;;;7.97;4.18;;;11.30;99.90;;;;;;4976937;28;20026;-67
2023/10/24 09:00:30;;;;;;;7.45;4.03;;;11.30;99.90;;;;;;4982836;28;20084;-66
2023/10/24 09:02:56;;;;;;;7.57;3.63;;;11.20;99.90;;;;;;4985164;28;20038;-66
2023/10/24 09:05:25;;;;;;;7.40;3.67;;;11.30;99.90;;;;;;4987579;28;20110;-67
2023/10/24 09:07:51;;;;;;;7.47;4.22;;;11.40;99.90;;;;;;4984757;28;20062;-69
2023/10/24 09:10:16;;;;;;;8.25;3.92;;;11.50;99.90;;;;;;4980348;28;20586;-66
2023/10/24 09:12:42;;;;;;;6.72;4.30;;;11.40;99.90;;;;;;4985638;28;20084;-66
2023/10/24 09:15:11;;;;;;;8.55;4.90;;;11.50;99.80;;;;;;4990180;28;20034;-66
2023/10/24 09:17:37;;;;;;;9.88;4.90;;;11.60;99.70;;;;;;4990687;28;20574;-66
2023/10/24 09:20:05;;;;;;;8.60;4.68;;;11.60;99.60;;;;;;4984295;28;20034;-66
2023/10/24 09:22:31;;;;;;;10.13;5.47;;;11.60;99.60;;;;;;4983599;28;20039;-66
2023/10/24 09:24:58;;;;;;;10.52;5.32;;;11.60;99.50;;;;;;4988954;28;20381;-66
2023/10/24 09:27:24;;;;;;;11.07;5.78;;;11.70;99.60;;;;;;4984902;28;20022;-66
2023/10/24 09:29:50;;;;;;;12.10;5.50;;;11.70;99.40;;;;;;4987918;28;20050;-67
2023/10/24 09:32:16;;;;;;;12.23;5.05;;;11.70;99.20;;;;;;5009056;28;20041;-66
2023/10/24 09:34:43;;;;;;;12.13;5.38;;;11.80;99.30;;;;;;4987888;28;20068;-67
2023/10/24 09:37:10;;;;;;;9.65;4.70;;;11.80;99.30;;;;;;4987181;28;20586;-66
2023/10/24 09:39:58;;;;;;;11.15;5.60;;;11.80;99.20;;;;;;4986583;28;20031;-66
2023/10/24 09:42:31;;;;;;;11.50;5.47;;;11.80;99.20;;;;;;4984674;28;20083;-67
2023/10/24 09:45:02;;;;;;;12.07;5.47;;;11.90;99.30;;;;;;4987055;28;20040;-66
2023/10/24 09:47:29;;;;;;;9.88;5.35;;;11.90;99.10;;;;;;4983533;28;20054;-66
2023/10/24 09:49:56;;;;;;;8.98;4.50;;;11.90;99.10;;;;;;4979592;28;20030;-66
2023/10/24 09:52:24;;;;;;;8.30;4.53;;;11.90;99.00;;;;;;4981471;28;20038;-67
2023/10/24 09:54:50;;;;;;;7.25;3.83;;;11.90;99.00;;;;;;4982971;28;20042;-68
2023/10/24 09:57:20;;;;;;;9.07;4.18;;;11.90;98.90;;;;;;4981315;28;20426;-67
2023/10/24 09:59:54;;;;;;;7.22;3.63;;;12.00;99.10;;;;;;4980284;28;20069;-68
2023/10/24 10:02:23;;;;;;;5.88;3.13;;;12.00;99.00;;;;;;4981459;28;20031;-67
2023/10/24 10:04:48;;;;;;;5.32;2.40;;;12.10;99.00;;;;;;4994656;28;20113;-67
2023/10/24 10:07:16;;;;;;;5.55;2.45;;;12.10;98.80;;;;;;4988258;28;20124;-68
2023/10/24 10:09:46;;;;;;;4.95;2.50;;;12.10;98.70;;;;;;4987438;28;20023;-67
2023/10/24 10:12:12;;;;;;;4.88;2.40;;;12.10;98.70;;;;;;4985007;28;20125;-68
2023/10/24 10:15:07;;;;;;;4.00;1.98;;;12.10;98.60;;;;;;4981739;28;20081;-67
2023/10/24 10:18:00;;;;;;;4.88;2.22;;;12.20;98.70;;;;;;4986136;28;20498;-67
2023/10/24 10:20:55;;;;;;;5.03;2.03;;;12.10;98.70;;;;;;4983403;28;20181;-68
2023/10/24 10:23:49;;;;;;;4.00;2.00;;;12.10;98.50;;;;;;4981853;28;20034;-66
2023/10/24 10:26:14;;;;;;;2.50;1.58;;;12.10;98.60;;;;;;4991516;28;20394;-66
2023/10/24 10:29:08;;;;;;;3.20;1.90;;;12.20;98.70;;;;;;4976478;28;20081;-67
2023/10/24 10:31:54;;;;;;;3.15;1.63;;;12.20;98.60;;;;;;4985098;28;20042;-66
2023/10/24 10:34:32;;;;;;;3.55;1.60;;;12.30;98.70;;;;;;4980433;28;20557;-67
2023/10/24 10:36:58;;;;;;;3.03;1.58;;;12.40;98.60;;;;;;4982820;28;20027;-66
2023/10/24 10:39:23;;;;;;;2.80;1.30;;;12.30;98.30;;;;;;4979498;28;20125;-65
2023/10/24 10:41:49;;;;;;;2.58;1.70;;;12.30;98.30;;;;;;4982072;28;20055;-68
2023/10/24 10:44:40;;;;;;;2.25;1.42;;;12.40;98.40;;;;;;4984065;28;20044;-66
2023/10/24 10:47:07;;;;;;;2.78;1.55;;;12.40;98.20;;;;;;4982997;28;20482;-66
2023/10/24 10:49:44;;;;;;;2.63;1.70;;;12.40;98.30;;;;;;4981737;28;20046;-67
2023/10/24 10:52:30;;;;;;;2.63;1.30;;;12.40;98.40;;;;;;4980229;28;20121;-67
2023/10/24 10:55:56;;;;;;;2.78;1.80;;;12.50;98.30;;;;;;4983182;28;20150;-67
2023/10/24 10:58:24;;;;;;;2.20;1.15;;;12.40;98.30;;;;;;4957158;28;20077;-66
2023/10/24 11:01:01;;;;;;;2.03;1.40;;;12.40;98.20;;;;;;4948448;29;20050;-66
2023/10/24 11:03:38;;;;;;;3.38;1.55;;;12.40;98.30;;;;;;4966243;28;20387;-66
2023/10/24 11:06:30;;;;;;;2.80;1.60;;;12.30;98.10;;;;;;4988691;28;20046;-68
2023/10/24 11:09:07;;;;;;;2.08;1.40;;;12.40;98.20;;;;;;4974957;28;20049;-67
2023/10/24 11:11:32;;;;;;;1.92;1.33;;;12.40;98.20;;;;;;4977844;28;20042;-67
2023/10/24 11:14:14;;;;;;;2.33;1.20;;;12.40;98.20;;;;;;4977703;28;20367;-67
2023/10/24 11:16:42;;;;;;;3.17;1.20;;;12.50;97.90;;;;;;4980584;28;20030;-68
2023/10/24 11:19:21;;;;;;;3.55;1.50;;;12.60;97.90;;;;;;4991280;28;20030;-67
2023/10/24 11:21:52;;;;;;;2.80;1.45;;;12.60;97.70;;;;;;4987639;28;20030;-67
2023/10/24 11:24:22;;;;;;;2.70;1.20;;;12.80;97.80;;;;;;4987813;28;20022;-68
2023/10/24 11:26:48;;;;;;;2.17;1.25;;;12.80;97.50;;;;;;4986791;28;20050;-68
2023/10/24 11:29:14;;;;;;;2.67;1.30;;;12.90;96.90;;;;;;4980633;28;20457;-69
2023/10/24 11:31:44;;;;;;;3.38;1.60;;;12.90;96.90;;;;;;4981296;28;20504;-67
2023/10/24 11:34:13;;;;;;;3.17;1.40;;;12.90;97.00;;;;;;4988668;28;20547;-67
2023/10/24 11:36:53;;;;;;;3.35;1.40;;;12.90;97.00;;;;;;4966756;28;20192;-69
2023/10/24 11:39:19;;;;;;;2.08;1.23;;;13.00;97.20;;;;;;4985822;28;20117;-68
2023/10/24 11:41:44;;;;;;;2.67;1.40;;;12.90;97.10;;;;;;4983455;28;20479;-68
2023/10/24 11:44:15;;;;;;;1.98;1.20;;;12.80;97.00;;;;;;4985214;28;20033;-68
2023/10/24 11:46:41;;;;;;;2.15;1.30;;;12.80;97.20;;;;;;4983113;28;20035;-67
2023/10/24 11:49:07;;;;;;;2.53;1.23;;;12.80;97.30;;;;;;4982135;28;20031;-67
2023/10/24 11:51:33;;;;;;;2.08;1.20;;;12.80;97.20;;;;;;4979026;28;20041;-67
2023/10/24 11:54:02;;;;;;;1.23;1.00;;;12.80;97.20;;;;;;4979981;28;20041;-68
2023/10/24 11:56:28;;;;;;;2.00;1.10;;;12.70;97.00;;;;;;4978229;28;20045;-70
2023/10/24 11:58:54;;;;;;;2.78;1.08;;;12.60;97.00;;;;;;4978778;28;20062;-67
2023/10/24 12:01:22;;;;;;;2.03;1.10;;;12.50;97.00;;;;;;4983261;28;20062;-67
2023/10/24 12:03:48;;;;;;;2.53;1.20;;;12.50;96.90;;;;;;4975485;28;20141;-66
2023/10/24 12:06:18;;;;;;;2.30;1.20;;;12.50;97.00;;;;;;4981583;28;20452;-68
2023/10/24 12:08:44;;;;;;;2.28;1.10;;;12.50;97.20;;;;;;4977769;28;20112;-67
2023/10/24 12:11:10;;;;;;;1.98;1.00;;;12.50;97.40;;;;;;4979408;28;20038;-66
2023/10/24 12:13:36;;;;;;;2.40;1.27;;;12.40;97.30;;;;;;4977801;28;20034;-69
2023/10/24 12:16:02;;;;;;;2.22;0.95;;;12.30;96.90;;;;;;4977032;28;20038;-66
2023/10/24 12:18:29;;;;;;;0.80;0.80;;;12.30;96.30;;;;;;4984680;28;20485;-66
2023/10/24 12:20:55;;;;;;;2.80;1.23;;;12.30;96.10;;;;;;4982451;28;20053;-66
2023/10/24 12:23:21;;;;;;;1.33;0.80;;;12.30;96.30;;;;;;4984019;28;20043;-66
2023/10/24 12:25:47;;;;;;;0.93;0.70;;;12.40;96.60;;;;;;4979044;28;20105;-67
2023/10/24 12:28:12;;;;;;;2.40;0.77;;;12.30;96.70;;;;;;4978569;28;20030;-66
2023/10/24 12:30:38;;;;;;;1.88;0.90;;;12.30;96.80;;;;;;4981646;28;20472;-67
2023/10/24 12:33:03;;;;;;;1.55;0.90;;;12.30;96.90;;;;;;4977231;28;20038;-66
2023/10/24 12:35:29;;;;;;;1.20;0.93;;;12.30;96.70;;;;;;4981272;28;20379;-67
2023/10/24 12:37:55;;;;;;;1.92;0.95;;;12.30;97.00;;;;;;4983996;28;20042;-67
2023/10/24 12:40:20;;;;;;;1.58;0.77;;;12.30;97.10;;;;;;4986671;28;20550;-67
2023/10/24 12:42:46;;;;;;;1.70;0.80;;;12.30;96.90;;;;;;4981777;28;20035;-67
2023/10/24 12:45:11;;;;;;;0.73;0.60;;;12.30;96.90;;;;;;4988660;28;20046;-66
2023/10/24 12:47:37;;;;;;;2.60;0.73;;;12.30;96.80;;;;;;4985608;28;20042;-67
2023/10/24 12:50:03;;;;;;;1.33;0.80;;;12.20;97.00;;;;;;4983135;28;20077;-66